sensor_id;sensor_type;location;lat;lon;timestamp;P1;durP1;ratioP1;P2;durP2;ratioP2
28577;SDS011;15769;52.248;15.818;2023-05-10T00:00:31;9.93;;;6.85;;
28577;SDS011;15769;52.248;15.818;2023-05-10T00:05:45;14.35;;;7.60;;
28577;SDS011;15769;52.248;15.818;2023-05-10T00:10:48;11.43;;;7.57;;
28577;SDS011;15769;52.248;15.818;2023-05-10T00:15:51;16.15;;;8.27;;
28577;SDS011;15769;52.248;15.818;2023-05-10T00:20:54;17.17;;;8.57;;
28577;SDS011;15769;52.248;15.818;2023-05-10T00:25:57;13.27;;;7.57;;
28577;SDS011;15769;52.248;15.818;2023-05-10T00:30:59;11.07;;;7.70;;
28577;SDS011;15769;52.248;15.818;2023-05-10T00:36:04;13.25;;;7.40;;
28577;SDS011;15769;52.248;15.818;2023-05-10T00:41:09;12.00;;;7.50;;
28577;SDS011;15769;52.248;15.818;2023-05-10T00:46:14;11.50;;;7.22;;
28577;SDS011;15769;52.248;15.818;2023-05-10T00:51:20;16.77;;;7.53;;
28577;SDS011;15769;52.248;15.818;2023-05-10T00:56:23;10.30;;;6.97;;
28577;SDS011;15769;52.248;15.818;2023-05-10T01:01:27;10.48;;;7.55;;
28577;SDS011;15769;52.248;15.818;2023-05-10T01:06:31;10.40;;;7.22;;
28577;SDS011;15769;52.248;15.818;2023-05-10T01:11:35;11.18;;;7.05;;
28577;SDS011;15769;52.248;15.818;2023-05-10T01:16:39;10.80;;;6.70;;
28577;SDS011;15769;52.248;15.818;2023-05-10T01:21:57;12.20;;;7.38;;
28577;SDS011;15769;52.248;15.818;2023-05-10T01:43:04;14.18;;;7.25;;
28577;SDS011;15769;52.248;15.818;2023-05-10T01:48:11;9.75;;;6.93;;
28577;SDS011;15769;52.248;15.818;2023-05-10T01:53:17;16.08;;;8.32;;
28577;SDS011;15769;52.248;15.818;2023-05-10T01:58:22;13.15;;;7.30;;
28577;SDS011;15769;52.248;15.818;2023-05-10T02:03:30;10.48;;;7.00;;
28577;SDS011;15769;52.248;15.818;2023-05-10T02:08:34;11.95;;;7.93;;
28577;SDS011;15769;52.248;15.818;2023-05-10T02:13:38;12.30;;;7.72;;
28577;SDS011;15769;52.248;15.818;2023-05-10T02:18:42;11.98;;;8.10;;
28577;SDS011;15769;52.248;15.818;2023-05-10T02:28:50;14.25;;;8.30;;
28577;SDS011;15769;52.248;15.818;2023-05-10T02:33:56;15.98;;;8.73;;
28577;SDS011;15769;52.248;15.818;2023-05-10T02:38:59;12.88;;;8.10;;
28577;SDS011;15769;52.248;15.818;2023-05-10T02:44:04;17.85;;;8.70;;
28577;SDS011;15769;52.248;15.818;2023-05-10T02:49:10;14.82;;;8.07;;
28577;SDS011;15769;52.248;15.818;2023-05-10T02:54:15;14.80;;;8.33;;
28577;SDS011;15769;52.248;15.818;2023-05-10T02:59:21;15.52;;;7.97;;
28577;SDS011;15769;52.248;15.818;2023-05-10T03:04:24;12.97;;;8.30;;
28577;SDS011;15769;52.248;15.818;2023-05-10T03:09:30;13.68;;;7.30;;
28577;SDS011;15769;52.248;15.818;2023-05-10T03:14:40;12.18;;;8.20;;
28577;SDS011;15769;52.248;15.818;2023-05-10T03:19:58;17.20;;;7.90;;
28577;SDS011;15769;52.248;15.818;2023-05-10T03:25:15;16.13;;;8.32;;
28577;SDS011;15769;52.248;15.818;2023-05-10T03:30:19;12.07;;;7.53;;
28577;SDS011;15769;52.248;15.818;2023-05-10T03:35:22;13.83;;;8.73;;
28577;SDS011;15769;52.248;15.818;2023-05-10T03:40:26;12.02;;;8.27;;
28577;SDS011;15769;52.248;15.818;2023-05-10T03:45:34;15.55;;;8.75;;
28577;SDS011;15769;52.248;15.818;2023-05-10T03:50:37;13.13;;;8.38;;
28577;SDS011;15769;52.248;15.818;2023-05-10T03:55:40;14.95;;;8.43;;
28577;SDS011;15769;52.248;15.818;2023-05-10T04:00:42;16.00;;;8.80;;
28577;SDS011;15769;52.248;15.818;2023-05-10T04:05:58;13.13;;;7.68;;
28577;SDS011;15769;52.248;15.818;2023-05-10T04:11:09;13.82;;;8.30;;
28577;SDS011;15769;52.248;15.818;2023-05-10T04:16:14;18.30;;;8.52;;
28577;SDS011;15769;52.248;15.818;2023-05-10T04:21:16;14.13;;;7.90;;
28577;SDS011;15769;52.248;15.818;2023-05-10T04:26:19;13.43;;;8.35;;
28577;SDS011;15769;52.248;15.818;2023-05-10T04:31:22;13.20;;;7.33;;
28577;SDS011;15769;52.248;15.818;2023-05-10T04:36:25;11.43;;;7.90;;
28577;SDS011;15769;52.248;15.818;2023-05-10T04:41:28;11.73;;;7.30;;
28577;SDS011;15769;52.248;15.818;2023-05-10T04:46:30;13.25;;;7.85;;
28577;SDS011;15769;52.248;15.818;2023-05-10T04:51:35;14.03;;;8.00;;
28577;SDS011;15769;52.248;15.818;2023-05-10T04:56:38;12.73;;;7.85;;
28577;SDS011;15769;52.248;15.818;2023-05-10T05:01:40;13.93;;;7.23;;
28577;SDS011;15769;52.248;15.818;2023-05-10T05:06:43;9.60;;;6.83;;
28577;SDS011;15769;52.248;15.818;2023-05-10T05:11:45;14.10;;;7.50;;
28577;SDS011;15769;52.248;15.818;2023-05-10T05:16:48;9.83;;;6.70;;
28577;SDS011;15769;52.248;15.818;2023-05-10T05:21:51;9.30;;;6.35;;
28577;SDS011;15769;52.248;15.818;2023-05-10T05:26:54;10.00;;;7.30;;
28577;SDS011;15769;52.248;15.818;2023-05-10T05:31:56;15.20;;;7.43;;
28577;SDS011;15769;52.248;15.818;2023-05-10T05:36:59;12.77;;;7.95;;
28577;SDS011;15769;52.248;15.818;2023-05-10T05:42:01;11.07;;;6.93;;
28577;SDS011;15769;52.248;15.818;2023-05-10T05:47:05;11.23;;;7.30;;
28577;SDS011;15769;52.248;15.818;2023-05-10T05:52:07;7.88;;;6.10;;
28577;SDS011;15769;52.248;15.818;2023-05-10T05:57:10;10.60;;;6.50;;
28577;SDS011;15769;52.248;15.818;2023-05-10T06:02:13;9.60;;;6.50;;
28577;SDS011;15769;52.248;15.818;2023-05-10T06:07:15;8.23;;;6.30;;
28577;SDS011;15769;52.248;15.818;2023-05-10T06:12:18;9.52;;;6.32;;
28577;SDS011;15769;52.248;15.818;2023-05-10T06:17:21;9.82;;;6.18;;
28577;SDS011;15769;52.248;15.818;2023-05-10T06:22:24;12.75;;;5.97;;
28577;SDS011;15769;52.248;15.818;2023-05-10T06:27:27;9.82;;;5.82;;
28577;SDS011;15769;52.248;15.818;2023-05-10T06:32:32;8.35;;;5.72;;
28577;SDS011;15769;52.248;15.818;2023-05-10T06:37:35;8.18;;;5.05;;
28577;SDS011;15769;52.248;15.818;2023-05-10T06:42:43;8.10;;;5.43;;
28577;SDS011;15769;52.248;15.818;2023-05-10T06:47:47;6.82;;;5.25;;
28577;SDS011;15769;52.248;15.818;2023-05-10T06:52:50;6.80;;;5.28;;
28577;SDS011;15769;52.248;15.818;2023-05-10T06:57:54;10.07;;;5.10;;
28577;SDS011;15769;52.248;15.818;2023-05-10T07:03:00;11.90;;;5.78;;
28577;SDS011;15769;52.248;15.818;2023-05-10T07:08:03;8.50;;;4.70;;
28577;SDS011;15769;52.248;15.818;2023-05-10T07:13:08;6.60;;;4.68;;
28577;SDS011;15769;52.248;15.818;2023-05-10T07:18:11;12.18;;;5.13;;
28577;SDS011;15769;52.248;15.818;2023-05-10T07:23:21;8.35;;;4.78;;
28577;SDS011;15769;52.248;15.818;2023-05-10T07:28:28;7.18;;;4.90;;
28577;SDS011;15769;52.248;15.818;2023-05-10T07:33:31;7.05;;;4.35;;
28577;SDS011;15769;52.248;15.818;2023-05-10T07:38:34;6.88;;;4.72;;
28577;SDS011;15769;52.248;15.818;2023-05-10T07:43:47;7.07;;;4.53;;
28577;SDS011;15769;52.248;15.818;2023-05-10T07:48:51;9.57;;;4.53;;
28577;SDS011;15769;52.248;15.818;2023-05-10T07:58:59;18.90;;;4.90;;
28577;SDS011;15769;52.248;15.818;2023-05-10T08:04:02;7.13;;;4.70;;
28577;SDS011;15769;52.248;15.818;2023-05-10T08:14:09;6.37;;;4.07;;
28577;SDS011;15769;52.248;15.818;2023-05-10T08:19:16;6.80;;;4.10;;
28577;SDS011;15769;52.248;15.818;2023-05-10T08:24:24;8.10;;;4.28;;
28577;SDS011;15769;52.248;15.818;2023-05-10T08:29:27;9.43;;;4.43;;
28577;SDS011;15769;52.248;15.818;2023-05-10T08:34:36;6.32;;;4.10;;
28577;SDS011;15769;52.248;15.818;2023-05-10T08:39:39;5.82;;;3.75;;
28577;SDS011;15769;52.248;15.818;2023-05-10T08:44:47;5.53;;;3.78;;
28577;SDS011;15769;52.248;15.818;2023-05-10T08:49:57;6.53;;;4.35;;
28577;SDS011;15769;52.248;15.818;2023-05-10T08:55:02;17.40;;;5.03;;
28577;SDS011;15769;52.248;15.818;2023-05-10T09:00:07;8.50;;;4.30;;
28577;SDS011;15769;52.248;15.818;2023-05-10T09:05:14;9.43;;;4.15;;
28577;SDS011;15769;52.248;15.818;2023-05-10T09:10:22;6.65;;;3.40;;
28577;SDS011;15769;52.248;15.818;2023-05-10T09:15:28;20.38;;;3.90;;
28577;SDS011;15769;52.248;15.818;2023-05-10T09:20:31;5.95;;;3.30;;
28577;SDS011;15769;52.248;15.818;2023-05-10T09:30:36;5.45;;;2.85;;
28577;SDS011;15769;52.248;15.818;2023-05-10T09:40:50;9.95;;;2.60;;
28577;SDS011;15769;52.248;15.818;2023-05-10T09:45:56;5.93;;;2.67;;
28577;SDS011;15769;52.248;15.818;2023-05-10T09:50:59;7.03;;;3.50;;
28577;SDS011;15769;52.248;15.818;2023-05-10T09:56:05;4.65;;;2.90;;
28577;SDS011;15769;52.248;15.818;2023-05-10T10:01:14;13.00;;;3.17;;
28577;SDS011;15769;52.248;15.818;2023-05-10T10:06:20;5.90;;;3.00;;
28577;SDS011;15769;52.248;15.818;2023-05-10T10:11:36;6.72;;;3.22;;
28577;SDS011;15769;52.248;15.818;2023-05-10T10:16:42;5.93;;;2.50;;
28577;SDS011;15769;52.248;15.818;2023-05-10T10:22:05;5.90;;;2.83;;
28577;SDS011;15769;52.248;15.818;2023-05-10T10:27:15;3.75;;;2.80;;
28577;SDS011;15769;52.248;15.818;2023-05-10T10:38:18;4.70;;;2.83;;
28577;SDS011;15769;52.248;15.818;2023-05-10T10:48:27;5.15;;;2.72;;
28577;SDS011;15769;52.248;15.818;2023-05-10T10:58:33;5.28;;;3.35;;
28577;SDS011;15769;52.248;15.818;2023-05-10T11:03:36;8.23;;;3.42;;
28577;SDS011;15769;52.248;15.818;2023-05-10T11:08:41;3.67;;;2.90;;
28577;SDS011;15769;52.248;15.818;2023-05-10T11:13:52;4.22;;;2.70;;
28577;SDS011;15769;52.248;15.818;2023-05-10T11:19:03;4.18;;;2.83;;
28577;SDS011;15769;52.248;15.818;2023-05-10T11:24:12;6.63;;;3.20;;
28577;SDS011;15769;52.248;15.818;2023-05-10T11:29:17;9.55;;;3.42;;
28577;SDS011;15769;52.248;15.818;2023-05-10T11:34:23;7.88;;;3.08;;
28577;SDS011;15769;52.248;15.818;2023-05-10T11:39:30;4.13;;;3.63;;
28577;SDS011;15769;52.248;15.818;2023-05-10T11:44:35;5.22;;;3.10;;
28577;SDS011;15769;52.248;15.818;2023-05-10T11:49:38;7.18;;;3.60;;
28577;SDS011;15769;52.248;15.818;2023-05-10T11:54:52;8.82;;;3.10;;
28577;SDS011;15769;52.248;15.818;2023-05-10T11:59:57;9.82;;;3.40;;
28577;SDS011;15769;52.248;15.818;2023-05-10T12:05:07;4.75;;;3.00;;
28577;SDS011;15769;52.248;15.818;2023-05-10T12:10:13;3.55;;;2.65;;
28577;SDS011;15769;52.248;15.818;2023-05-10T12:15:18;4.03;;;2.55;;
28577;SDS011;15769;52.248;15.818;2023-05-10T12:20:27;10.15;;;3.17;;
28577;SDS011;15769;52.248;15.818;2023-05-10T12:25:31;6.78;;;3.03;;
28577;SDS011;15769;52.248;15.818;2023-05-10T12:30:40;5.05;;;2.70;;
28577;SDS011;15769;52.248;15.818;2023-05-10T12:35:44;6.75;;;3.20;;
28577;SDS011;15769;52.248;15.818;2023-05-10T12:40:48;4.80;;;2.63;;
28577;SDS011;15769;52.248;15.818;2023-05-10T12:45:51;5.93;;;2.60;;
28577;SDS011;15769;52.248;15.818;2023-05-10T12:50:57;7.95;;;3.17;;
28577;SDS011;15769;52.248;15.818;2023-05-10T13:01:02;6.65;;;2.92;;
28577;SDS011;15769;52.248;15.818;2023-05-10T13:06:05;4.15;;;2.83;;
28577;SDS011;15769;52.248;15.818;2023-05-10T13:11:09;7.55;;;3.00;;
28577;SDS011;15769;52.248;15.818;2023-05-10T13:16:12;5.43;;;2.75;;
28577;SDS011;15769;52.248;15.818;2023-05-10T13:21:15;22.13;;;3.72;;
28577;SDS011;15769;52.248;15.818;2023-05-10T13:26:20;24.60;;;3.53;;
28577;SDS011;15769;52.248;15.818;2023-05-10T13:31:23;7.65;;;2.92;;
28577;SDS011;15769;52.248;15.818;2023-05-10T13:36:26;7.68;;;2.40;;
28577;SDS011;15769;52.248;15.818;2023-05-10T13:41:29;6.90;;;2.53;;
28577;SDS011;15769;52.248;15.818;2023-05-10T13:46:32;4.35;;;2.78;;
28577;SDS011;15769;52.248;15.818;2023-05-10T13:51:36;9.63;;;3.10;;
28577;SDS011;15769;52.248;15.818;2023-05-10T13:56:39;7.03;;;2.42;;
28577;SDS011;15769;52.248;15.818;2023-05-10T14:01:44;3.25;;;2.40;;
28577;SDS011;15769;52.248;15.818;2023-05-10T14:06:47;3.55;;;2.85;;
28577;SDS011;15769;52.248;15.818;2023-05-10T14:11:53;5.18;;;2.55;;
28577;SDS011;15769;52.248;15.818;2023-05-10T14:21:58;7.35;;;2.80;;
28577;SDS011;15769;52.248;15.818;2023-05-10T14:32:04;3.10;;;2.40;;
28577;SDS011;15769;52.248;15.818;2023-05-10T14:37:10;4.43;;;2.97;;
28577;SDS011;15769;52.248;15.818;2023-05-10T14:42:13;4.45;;;2.65;;
28577;SDS011;15769;52.248;15.818;2023-05-10T14:47:16;5.28;;;3.03;;
28577;SDS011;15769;52.248;15.818;2023-05-10T14:52:19;4.50;;;2.70;;
28577;SDS011;15769;52.248;15.818;2023-05-10T14:57:23;6.85;;;3.08;;
28577;SDS011;15769;52.248;15.818;2023-05-10T15:07:31;8.00;;;2.97;;
28577;SDS011;15769;52.248;15.818;2023-05-10T15:12:34;3.75;;;2.60;;
28577;SDS011;15769;52.248;15.818;2023-05-10T15:17:37;3.90;;;3.00;;
28577;SDS011;15769;52.248;15.818;2023-05-10T15:22:39;3.10;;;2.78;;
28577;SDS011;15769;52.248;15.818;2023-05-10T15:27:45;4.90;;;3.00;;
28577;SDS011;15769;52.248;15.818;2023-05-10T15:32:47;3.05;;;2.55;;
28577;SDS011;15769;52.248;15.818;2023-05-10T15:42:53;6.05;;;3.00;;
28577;SDS011;15769;52.248;15.818;2023-05-10T15:47:57;4.45;;;3.33;;
28577;SDS011;15769;52.248;15.818;2023-05-10T15:53:01;5.38;;;2.88;;
28577;SDS011;15769;52.248;15.818;2023-05-10T15:58:04;4.20;;;2.80;;
28577;SDS011;15769;52.248;15.818;2023-05-10T16:03:07;3.75;;;2.85;;
28577;SDS011;15769;52.248;15.818;2023-05-10T16:13:13;5.00;;;2.88;;
28577;SDS011;15769;52.248;15.818;2023-05-10T16:18:17;5.22;;;3.28;;
28577;SDS011;15769;52.248;15.818;2023-05-10T16:23:20;3.92;;;2.90;;
28577;SDS011;15769;52.248;15.818;2023-05-10T16:28:24;6.55;;;2.45;;
28577;SDS011;15769;52.248;15.818;2023-05-10T16:33:27;2.70;;;2.40;;
28577;SDS011;15769;52.248;15.818;2023-05-10T16:38:29;4.97;;;2.70;;
28577;SDS011;15769;52.248;15.818;2023-05-10T16:43:33;3.20;;;2.33;;
28577;SDS011;15769;52.248;15.818;2023-05-10T16:48:35;3.28;;;2.25;;
28577;SDS011;15769;52.248;15.818;2023-05-10T16:58:41;5.20;;;2.40;;
28577;SDS011;15769;52.248;15.818;2023-05-10T17:03:48;3.70;;;2.50;;
28577;SDS011;15769;52.248;15.818;2023-05-10T17:08:50;2.80;;;2.40;;
28577;SDS011;15769;52.248;15.818;2023-05-10T17:13:54;4.35;;;2.80;;
28577;SDS011;15769;52.248;15.818;2023-05-10T17:18:57;4.05;;;2.50;;
28577;SDS011;15769;52.248;15.818;2023-05-10T17:24:00;3.47;;;2.10;;
28577;SDS011;15769;52.248;15.818;2023-05-10T17:29:02;4.28;;;3.00;;
28577;SDS011;15769;52.248;15.818;2023-05-10T17:34:05;2.60;;;2.40;;
28577;SDS011;15769;52.248;15.818;2023-05-10T17:39:07;5.40;;;2.42;;
28577;SDS011;15769;52.248;15.818;2023-05-10T17:44:10;5.25;;;2.80;;
28577;SDS011;15769;52.248;15.818;2023-05-10T17:49:14;4.70;;;2.72;;
28577;SDS011;15769;52.248;15.818;2023-05-10T17:54:17;5.15;;;2.80;;
28577;SDS011;15769;52.248;15.818;2023-05-10T17:59:21;3.75;;;2.55;;
28577;SDS011;15769;52.248;15.818;2023-05-10T18:04:26;5.22;;;2.78;;
28577;SDS011;15769;52.248;15.818;2023-05-10T18:14:33;3.67;;;3.03;;
28577;SDS011;15769;52.248;15.818;2023-05-10T18:19:42;3.88;;;2.90;;
28577;SDS011;15769;52.248;15.818;2023-05-10T18:24:45;3.83;;;2.92;;
28577;SDS011;15769;52.248;15.818;2023-05-10T18:34:51;7.20;;;3.40;;
28577;SDS011;15769;52.248;15.818;2023-05-10T18:39:59;11.68;;;5.90;;
28577;SDS011;15769;52.248;15.818;2023-05-10T18:45:02;9.40;;;4.43;;
28577;SDS011;15769;52.248;15.818;2023-05-10T18:50:05;5.15;;;3.40;;
28577;SDS011;15769;52.248;15.818;2023-05-10T18:55:09;12.45;;;8.63;;
28577;SDS011;15769;52.248;15.818;2023-05-10T19:00:12;6.15;;;3.58;;
28577;SDS011;15769;52.248;15.818;2023-05-10T19:05:18;3.60;;;3.10;;
28577;SDS011;15769;52.248;15.818;2023-05-10T19:10:22;4.57;;;3.38;;
28577;SDS011;15769;52.248;15.818;2023-05-10T19:15:25;4.53;;;3.20;;
28577;SDS011;15769;52.248;15.818;2023-05-10T19:20:30;4.57;;;3.45;;
28577;SDS011;15769;52.248;15.818;2023-05-10T19:25:35;6.65;;;4.10;;
28577;SDS011;15769;52.248;15.818;2023-05-10T19:30:38;8.18;;;5.00;;
28577;SDS011;15769;52.248;15.818;2023-05-10T19:35:41;6.65;;;4.80;;
28577;SDS011;15769;52.248;15.818;2023-05-10T19:40:46;6.60;;;4.80;;
28577;SDS011;15769;52.248;15.818;2023-05-10T19:45:48;7.90;;;4.95;;
28577;SDS011;15769;52.248;15.818;2023-05-10T19:50:52;7.35;;;5.32;;
28577;SDS011;15769;52.248;15.818;2023-05-10T19:55:54;5.28;;;4.07;;
28577;SDS011;15769;52.248;15.818;2023-05-10T20:00:58;8.52;;;5.05;;
28577;SDS011;15769;52.248;15.818;2023-05-10T20:06:01;21.73;;;11.77;;
28577;SDS011;15769;52.248;15.818;2023-05-10T20:11:05;16.42;;;9.45;;
28577;SDS011;15769;52.248;15.818;2023-05-10T20:16:07;13.65;;;7.32;;
28577;SDS011;15769;52.248;15.818;2023-05-10T20:21:10;11.00;;;5.47;;
28577;SDS011;15769;52.248;15.818;2023-05-10T20:26:13;8.30;;;5.07;;
28577;SDS011;15769;52.248;15.818;2023-05-10T20:31:16;8.57;;;4.78;;
28577;SDS011;15769;52.248;15.818;2023-05-10T20:36:18;5.72;;;4.30;;
28577;SDS011;15769;52.248;15.818;2023-05-10T20:41:21;7.68;;;5.00;;
28577;SDS011;15769;52.248;15.818;2023-05-10T20:46:25;8.30;;;5.47;;
28577;SDS011;15769;52.248;15.818;2023-05-10T20:51:28;11.25;;;6.22;;
28577;SDS011;15769;52.248;15.818;2023-05-10T21:01:35;13.68;;;7.50;;
28577;SDS011;15769;52.248;15.818;2023-05-10T21:06:38;10.73;;;7.03;;
28577;SDS011;15769;52.248;15.818;2023-05-10T21:11:43;13.95;;;8.45;;
28577;SDS011;15769;52.248;15.818;2023-05-10T21:16:46;13.80;;;8.95;;
28577;SDS011;15769;52.248;15.818;2023-05-10T21:21:49;10.35;;;7.55;;
28577;SDS011;15769;52.248;15.818;2023-05-10T21:26:52;11.30;;;8.30;;
28577;SDS011;15769;52.248;15.818;2023-05-10T21:31:55;16.15;;;9.25;;
28577;SDS011;15769;52.248;15.818;2023-05-10T21:36:59;11.05;;;7.53;;
28577;SDS011;15769;52.248;15.818;2023-05-10T21:42:04;15.38;;;8.90;;
28577;SDS011;15769;52.248;15.818;2023-05-10T21:47:08;13.55;;;8.15;;
28577;SDS011;15769;52.248;15.818;2023-05-10T21:52:11;12.07;;;7.55;;
28577;SDS011;15769;52.248;15.818;2023-05-10T21:57:14;13.47;;;8.47;;
28577;SDS011;15769;52.248;15.818;2023-05-10T22:02:17;11.93;;;7.60;;
28577;SDS011;15769;52.248;15.818;2023-05-10T22:07:20;11.43;;;7.68;;
28577;SDS011;15769;52.248;15.818;2023-05-10T22:12:22;10.47;;;7.53;;
28577;SDS011;15769;52.248;15.818;2023-05-10T22:17:25;14.80;;;7.90;;
28577;SDS011;15769;52.248;15.818;2023-05-10T22:22:29;12.87;;;8.03;;
28577;SDS011;15769;52.248;15.818;2023-05-10T22:27:31;12.82;;;9.18;;
28577;SDS011;15769;52.248;15.818;2023-05-10T22:32:34;13.10;;;8.67;;
28577;SDS011;15769;52.248;15.818;2023-05-10T22:37:36;13.97;;;8.30;;
28577;SDS011;15769;52.248;15.818;2023-05-10T22:42:39;15.57;;;9.37;;
28577;SDS011;15769;52.248;15.818;2023-05-10T22:47:42;12.38;;;8.35;;
28577;SDS011;15769;52.248;15.818;2023-05-10T22:52:45;15.33;;;8.90;;
28577;SDS011;15769;52.248;15.818;2023-05-10T22:57:48;15.47;;;9.00;;
28577;SDS011;15769;52.248;15.818;2023-05-10T23:02:50;13.47;;;8.63;;
28577;SDS011;15769;52.248;15.818;2023-05-10T23:07:57;12.32;;;8.40;;
28577;SDS011;15769;52.248;15.818;2023-05-10T23:12:59;11.48;;;8.55;;
28577;SDS011;15769;52.248;15.818;2023-05-10T23:18:02;14.73;;;8.93;;
28577;SDS011;15769;52.248;15.818;2023-05-10T23:23:08;14.32;;;9.05;;
28577;SDS011;15769;52.248;15.818;2023-05-10T23:28:11;13.85;;;8.52;;
28577;SDS011;15769;52.248;15.818;2023-05-10T23:33:14;13.85;;;8.57;;
28577;SDS011;15769;52.248;15.818;2023-05-10T23:38:20;13.03;;;7.50;;
28577;SDS011;15769;52.248;15.818;2023-05-10T23:43:25;11.52;;;7.88;;
28577;SDS011;15769;52.248;15.818;2023-05-10T23:48:27;11.25;;;7.80;;
28577;SDS011;15769;52.248;15.818;2023-05-10T23:53:30;16.40;;;8.00;;
28577;SDS011;15769;52.248;15.818;2023-05-10T23:58:32;10.02;;;6.80;;
